createdAt,value
2018-09-27T00:00:44.895Z,6.70
2018-09-27T00:03:25.246Z,4.50
2018-09-27T00:09:29.622Z,5.23
2018-09-27T00:12:11.558Z,8.57
2018-09-27T00:14:50.474Z,6.30
2018-09-27T00:17:28.773Z,7.90
2018-09-27T00:20:04.492Z,9.57
2018-09-27T00:22:41.301Z,58.83
2018-09-27T00:25:18.546Z,11.87
2018-09-27T00:27:53.579Z,17.90
2018-09-27T00:30:30.514Z,17.37
2018-09-27T00:33:06.255Z,17.10
2018-09-27T00:35:40.934Z,5.17
2018-09-27T00:38:19.098Z,5.80
2018-09-27T00:40:58.763Z,6.87
2018-09-27T00:46:34.439Z,4.93
2018-09-27T00:49:11.904Z,5.33
2018-09-27T00:51:51.482Z,4.50
2018-09-27T00:54:26.646Z,4.07
2018-09-27T00:57:03.804Z,4.13
2018-09-27T00:59:42.957Z,4.90
2018-09-27T01:02:30.734Z,4.10
2018-09-27T01:05:24.919Z,4.73
2018-09-27T01:08:06.532Z,5.17
2018-09-27T01:10:45.997Z,3.60
2018-09-27T01:13:20.870Z,3.10
2018-09-27T01:15:58.913Z,3.27
2018-09-27T01:18:51.086Z,3.40
2018-09-27T01:24:44.257Z,7.90
2018-09-27T01:27:16.778Z,5.67
2018-09-27T01:29:49.221Z,5.90
2018-09-27T01:36:14.820Z,5.07
2018-09-27T01:38:49.941Z,5.07
2018-09-27T01:41:24.075Z,5.57
2018-09-27T01:44:01.939Z,4.50
2018-09-27T01:46:47.157Z,4.27
2018-09-27T01:49:31.925Z,5.80
2018-09-27T01:52:05.038Z,6.07
2018-09-27T01:54:39.530Z,5.87
2018-09-27T01:57:28.426Z,6.23
2018-09-27T02:00:07.157Z,5.43
2018-09-27T02:02:40.768Z,5.00
2018-09-27T02:05:24.215Z,4.03
2018-09-27T02:08:05.961Z,4.43
2018-09-27T02:10:54.030Z,4.20
2018-09-27T02:13:32.012Z,3.43
2018-09-27T02:16:27.037Z,3.50
2018-09-27T02:19:00.658Z,3.07
2018-09-27T02:21:34.172Z,3.67
2018-09-27T02:24:07.699Z,3.47
2018-09-27T02:26:40.796Z,4.43
2018-09-27T02:29:14.915Z,3.70
2018-09-27T02:31:48.383Z,3.77
2018-09-27T02:34:29.449Z,3.90
2018-09-27T02:37:18.055Z,4.37
2018-09-27T02:39:56.315Z,3.40
2018-09-27T02:42:35.546Z,3.77
2018-09-27T02:45:14.201Z,3.33
2018-09-27T02:47:52.492Z,3.97
2018-09-27T02:50:30.158Z,3.70
2018-09-27T02:53:08.066Z,2.70
2018-09-27T02:55:48.143Z,2.93
2018-09-27T02:58:45.966Z,4.50
2018-09-27T03:01:35.693Z,3.80
2018-09-27T03:04:15.151Z,7.67
2018-09-27T03:06:54.917Z,8.83
2018-09-27T03:09:43.007Z,8.67
2018-09-27T03:12:29.787Z,6.60
2018-09-27T03:15:12.248Z,5.57
2018-09-27T03:21:18.698Z,5.57
2018-09-27T03:23:52.070Z,5.83
2018-09-27T03:26:26.699Z,6.03
2018-09-27T03:28:59.587Z,4.80
2018-09-27T03:31:32.377Z,4.87
2018-09-27T03:34:09.377Z,3.57
2018-09-27T03:36:46.574Z,4.47
2018-09-27T03:39:22.125Z,4.30
2018-09-27T03:42:04.691Z,3.80
2018-09-27T03:44:42.613Z,4.73
2018-09-27T03:47:19.729Z,4.37
2018-09-27T03:49:59.227Z,4.00
2018-09-27T03:52:35.614Z,4.60
2018-09-27T03:55:11.367Z,4.30
2018-09-27T03:57:51.264Z,3.83
2018-09-27T04:00:31.954Z,3.63
2018-09-27T04:03:09.105Z,4.50
2018-09-27T04:05:51.649Z,4.33
2018-09-27T04:08:29.942Z,4.20
2018-09-27T04:11:14.624Z,5.23
2018-09-27T04:13:52.817Z,4.67
2018-09-27T04:19:47.782Z,5.30
2018-09-27T04:22:20.867Z,5.10
2018-09-27T04:24:54.105Z,4.73
2018-09-27T04:27:27.259Z,4.90
2018-09-27T04:30:00.560Z,5.00
2018-09-27T04:32:33.954Z,5.60
2018-09-27T04:35:06.827Z,5.03
2018-09-27T04:37:40.148Z,5.20
2018-09-27T04:40:13.346Z,5.33
2018-09-27T04:42:48.599Z,5.20
2018-09-27T04:45:24.924Z,5.50
2018-09-27T04:48:02.241Z,4.93
2018-09-27T04:50:41.329Z,6.13
2018-09-27T04:53:17.681Z,7.37
2018-09-27T04:55:54.499Z,6.33
2018-09-27T04:58:35.983Z,6.87
2018-09-27T05:01:12.516Z,6.87
2018-09-27T05:03:50.416Z,6.43
2018-09-27T05:06:26.577Z,6.87
2018-09-27T05:09:05.207Z,5.57
2018-09-27T05:11:43.711Z,4.83
2018-09-27T05:14:19.684Z,4.50
2018-09-27T05:16:56.509Z,3.47
2018-09-27T05:19:32.703Z,4.27
2018-09-27T05:25:26.636Z,3.73
2018-09-27T05:27:58.987Z,4.17
2018-09-27T05:30:31.659Z,4.87
2018-09-27T05:33:04.344Z,4.67
2018-09-27T05:35:38.009Z,4.93
2018-09-27T05:38:11.262Z,4.80
2018-09-27T05:40:44.548Z,3.77
2018-09-27T05:43:17.557Z,3.50
2018-09-27T05:45:50.412Z,4.23
2018-09-27T05:48:23.994Z,3.83
2018-09-27T05:50:56.794Z,3.57
2018-09-27T05:53:29.924Z,3.00
2018-09-27T05:56:02.692Z,4.07
2018-09-27T05:58:36.286Z,3.47
2018-09-27T06:01:09.041Z,3.63
2018-09-27T06:03:42.240Z,3.50
2018-09-27T06:06:18.686Z,2.63
2018-09-27T06:08:54.983Z,3.73
2018-09-27T06:11:32.737Z,4.00
2018-09-27T06:14:10.092Z,3.97
2018-09-27T06:16:45.039Z,13.97
2018-09-27T06:19:20.739Z,7.40
2018-09-27T06:21:56.996Z,9.83
2018-09-27T06:24:34.667Z,5.67
2018-09-27T06:27:12.226Z,4.03
2018-09-27T06:29:50.039Z,3.83
2018-09-27T06:32:26.939Z,4.30
2018-09-27T06:35:03.673Z,4.50
2018-09-27T06:37:44.355Z,5.70
2018-09-27T06:40:20.338Z,4.37
2018-09-27T06:42:57.545Z,4.43
2018-09-27T06:45:33.367Z,5.03
2018-09-27T06:48:09.556Z,5.13
2018-09-27T06:50:45.764Z,6.50
2018-09-27T06:53:18.787Z,7.40
2018-09-27T06:55:51.760Z,7.90
2018-09-27T06:58:24.780Z,9.20
2018-09-27T07:00:57.266Z,10.20
2018-09-27T07:03:30.276Z,11.07
2018-09-27T07:06:03.228Z,12.40
2018-09-27T07:12:02.892Z,13.20
2018-09-27T07:14:36.260Z,12.70
2018-09-27T07:17:09.604Z,13.07
2018-09-27T07:19:42.732Z,13.00
2018-09-27T07:22:15.957Z,13.40
2018-09-27T07:24:48.540Z,11.57
2018-09-27T07:27:21.631Z,10.17
2018-09-27T07:29:54.641Z,10.60
2018-09-27T07:32:27.777Z,10.97
2018-09-27T07:35:00.781Z,9.23
2018-09-27T07:37:33.918Z,8.17
2018-09-27T07:40:06.737Z,7.97
2018-09-27T07:42:39.593Z,7.10
2018-09-27T07:45:52.809Z,6.97
2018-09-27T07:48:25.758Z,7.63
2018-09-27T07:50:58.649Z,7.43
2018-09-27T07:53:31.085Z,8.13
2018-09-27T07:56:03.488Z,8.17
2018-09-27T07:58:36.553Z,9.03
2018-09-27T08:01:09.579Z,8.53
2018-09-27T08:03:43.521Z,9.33
2018-09-27T08:06:16.368Z,9.03
2018-09-27T08:08:49.457Z,9.87
2018-09-27T08:11:22.362Z,9.60
2018-09-27T08:13:55.835Z,10.47
2018-09-27T08:16:28.830Z,8.90
2018-09-27T08:19:01.760Z,9.90
2018-09-27T08:21:34.823Z,8.63
2018-09-27T08:24:08.080Z,8.30
2018-09-27T08:26:41.376Z,7.80
2018-09-27T08:29:14.152Z,8.47
2018-09-27T08:31:47.345Z,8.03
2018-09-27T08:34:20.078Z,7.40
2018-09-27T08:36:52.597Z,7.97
2018-09-27T08:39:25.458Z,7.87
2018-09-27T08:41:58.347Z,8.87
2018-09-27T08:44:31.416Z,8.13
2018-09-27T08:47:04.357Z,8.27
2018-09-27T08:49:37.090Z,9.17
2018-09-27T08:52:09.750Z,8.57
2018-09-27T08:54:42.493Z,8.23
2018-09-27T08:57:15.763Z,8.57
2018-09-27T08:59:48.501Z,8.97
2018-09-27T09:02:21.206Z,8.60
2018-09-27T09:04:53.813Z,8.70
2018-09-27T09:07:26.170Z,7.63
2018-09-27T09:09:59.363Z,7.87
2018-09-27T09:12:32.145Z,7.93
2018-09-27T09:15:04.648Z,7.63
2018-09-27T09:17:37.572Z,8.20
2018-09-27T09:20:10.490Z,7.03
2018-09-27T09:22:42.808Z,7.53
2018-09-27T09:25:15.576Z,7.63
2018-09-27T09:27:47.879Z,7.80
2018-09-27T09:30:20.721Z,6.57
2018-09-27T09:32:53.593Z,6.80
2018-09-27T09:35:26.255Z,6.20
2018-09-27T09:37:58.769Z,6.73
2018-09-27T09:40:31.751Z,7.80
2018-09-27T09:43:04.693Z,7.57
2018-09-27T09:45:37.973Z,8.80
2018-09-27T09:48:10.975Z,7.60
2018-09-27T09:50:44.933Z,6.27
2018-09-27T09:53:17.491Z,7.50
2018-09-27T09:55:50.601Z,7.83
2018-09-27T09:58:23.547Z,7.90
2018-09-27T10:04:27.411Z,8.53
2018-09-27T10:07:00.287Z,8.33
2018-09-27T10:09:32.624Z,8.47
2018-09-27T10:12:05.325Z,8.60
2018-09-27T10:14:38.014Z,8.23
2018-09-27T10:17:10.391Z,9.33
2018-09-27T10:19:42.641Z,11.23
2018-09-27T10:22:15.292Z,11.67
2018-09-27T10:24:47.848Z,10.67
2018-09-27T10:27:20.548Z,13.47
2018-09-27T10:29:52.808Z,16.50
2018-09-27T10:32:25.351Z,11.43
2018-09-27T10:34:57.584Z,20.63
2018-09-27T10:40:52.049Z,12.90
2018-09-27T10:43:25.196Z,12.40
2018-09-27T10:45:59.741Z,10.80
2018-09-27T10:48:33.096Z,12.07
2018-09-27T10:51:06.342Z,10.60
2018-09-27T10:53:40.191Z,10.57
2018-09-27T10:56:13.581Z,10.20
2018-09-27T10:58:46.953Z,10.43
2018-09-27T11:01:19.838Z,10.27
2018-09-27T11:03:52.983Z,12.10
2018-09-27T11:06:26.513Z,11.37
2018-09-27T11:09:00.075Z,11.07
2018-09-27T11:11:34.868Z,10.63
2018-09-27T11:14:08.410Z,14.57
2018-09-27T11:16:42.806Z,11.67
2018-09-27T11:19:16.384Z,10.97
2018-09-27T11:21:50.622Z,9.90
2018-09-27T11:24:24.042Z,11.20
2018-09-27T11:26:57.388Z,11.80
2018-09-27T11:29:35.075Z,55.83
2018-09-27T11:32:12.463Z,43.27
2018-09-27T11:34:48.316Z,17.73
2018-09-27T11:37:26.142Z,13.67
2018-09-27T11:39:59.201Z,13.17
2018-09-27T11:42:32.657Z,13.87
2018-09-27T11:45:12.218Z,13.13
2018-09-27T11:47:50.154Z,15.63
2018-09-27T11:50:25.993Z,14.10
2018-09-27T11:53:02.129Z,12.77
2018-09-27T11:55:37.591Z,11.87
2018-09-27T11:58:15.070Z,12.70
2018-09-27T12:00:51.093Z,12.97
2018-09-27T12:03:26.337Z,10.87
2018-09-27T12:05:59.622Z,11.70
2018-09-27T12:08:33.110Z,12.20
2018-09-27T12:11:06.284Z,10.20
2018-09-27T12:13:40.546Z,8.97
2018-09-27T12:16:14.627Z,9.17
2018-09-27T12:18:48.046Z,8.87
2018-09-27T12:21:21.284Z,10.50
2018-09-27T12:23:54.747Z,10.30
2018-09-27T12:29:48.695Z,8.97
2018-09-27T12:32:21.672Z,9.40
2018-09-27T12:34:54.517Z,10.27
2018-09-27T12:37:27.675Z,10.53
2018-09-27T12:40:01.229Z,9.17
2018-09-27T12:42:33.852Z,7.33
2018-09-27T12:45:06.560Z,8.50
2018-09-27T12:47:39.322Z,7.67
2018-09-27T12:50:12.236Z,7.73
2018-09-27T12:52:45.619Z,7.27
2018-09-27T12:55:18.509Z,7.70
2018-09-27T12:57:51.892Z,8.53
2018-09-27T13:00:24.908Z,7.80
2018-09-27T13:02:59.802Z,9.63
2018-09-27T13:05:33.542Z,8.27
2018-09-27T13:08:06.229Z,7.37
2018-09-27T13:10:39.494Z,7.63
2018-09-27T13:13:13.136Z,9.10
2018-09-27T13:15:46.227Z,9.10
2018-09-27T13:18:20.132Z,8.83
2018-09-27T13:20:53.212Z,8.30
2018-09-27T13:23:27.315Z,9.40
2018-09-27T13:26:00.484Z,10.57
2018-09-27T13:28:33.646Z,7.97
2018-09-27T13:31:07.108Z,8.13
2018-09-27T13:33:40.146Z,7.60
2018-09-27T13:36:15.544Z,6.60
2018-09-27T13:38:49.022Z,6.70
2018-09-27T13:41:22.488Z,7.47
2018-09-27T13:43:55.402Z,10.20
2018-09-27T13:46:28.545Z,10.70
2018-09-27T13:49:01.399Z,8.50
2018-09-27T13:51:34.309Z,7.57
2018-09-27T13:54:06.998Z,6.83
2018-09-27T13:56:40.057Z,8.77
2018-09-27T14:02:45.585Z,10.33
2018-09-27T14:05:19.512Z,12.83
2018-09-27T14:07:53.240Z,15.17
2018-09-27T14:10:25.638Z,85.63
2018-09-27T14:12:58.429Z,70.27
2018-09-27T14:15:31.177Z,40.43
2018-09-27T14:18:05.413Z,16.60
2018-09-27T14:20:38.213Z,30.30
2018-09-27T14:23:11.227Z,28.30
2018-09-27T14:25:44.160Z,111.53
2018-09-27T14:28:17.271Z,57.83
2018-09-27T14:30:52.463Z,71.53
2018-09-27T14:33:25.622Z,32.07
2018-09-27T14:35:58.520Z,15.50
2018-09-27T14:38:31.108Z,9.00
2018-09-27T14:41:04.086Z,6.33
2018-09-27T14:43:37.201Z,4.67
2018-09-27T14:46:11.461Z,5.17
2018-09-27T14:48:44.846Z,5.60
2018-09-27T14:51:18.270Z,6.43
2018-09-27T14:53:50.870Z,4.47
2018-09-27T14:56:25.001Z,5.07
2018-09-27T14:58:57.424Z,5.47
2018-09-27T15:01:30.439Z,4.87
2018-09-27T15:04:03.810Z,7.27
2018-09-27T15:06:36.125Z,5.70
2018-09-27T15:12:31.354Z,11.20
2018-09-27T15:15:03.956Z,10.77
2018-09-27T15:17:40.474Z,4.87
2018-09-27T15:20:15.076Z,6.50
2018-09-27T15:22:48.151Z,5.00
2018-09-27T15:25:21.680Z,5.63
2018-09-27T15:27:54.328Z,4.50
2018-09-27T15:30:28.593Z,4.87
2018-09-27T15:33:01.418Z,5.50
2018-09-27T15:35:34.232Z,5.47
2018-09-27T15:38:07.101Z,4.17
2018-09-27T15:40:40.141Z,4.80
2018-09-27T15:43:13.728Z,4.10
2018-09-27T15:45:47.519Z,3.33
2018-09-27T15:48:21.616Z,4.73
2018-09-27T15:50:55.030Z,4.33
2018-09-27T15:53:27.567Z,4.20
2018-09-27T15:56:00.620Z,4.00
2018-09-27T15:58:33.357Z,4.27
2018-09-27T16:01:06.825Z,4.30
2018-09-27T16:03:40.704Z,4.60
2018-09-27T16:06:14.705Z,4.23
2018-09-27T16:08:50.588Z,7.57
2018-09-27T16:11:26.089Z,4.37
2018-09-27T16:14:00.085Z,4.43
2018-09-27T16:16:38.877Z,5.33
2018-09-27T16:19:11.697Z,4.83
2018-09-27T16:25:04.853Z,3.83
2018-09-27T16:27:39.030Z,3.33
2018-09-27T16:30:12.023Z,3.60
2018-09-27T16:32:47.361Z,4.17
2018-09-27T16:35:23.548Z,4.20
2018-09-27T16:38:00.771Z,3.90
2018-09-27T16:40:36.180Z,4.17
2018-09-27T16:43:13.078Z,4.12
2018-09-27T16:45:49.404Z,4.07
2018-09-27T16:48:21.657Z,7.33
2018-09-27T16:50:54.100Z,4.62
2018-09-27T16:53:26.701Z,6.53
2018-09-27T16:55:59.028Z,3.80
2018-09-27T16:58:31.934Z,4.77
2018-09-27T17:01:04.312Z,8.00
2018-09-27T17:03:37.949Z,4.43
2018-09-27T17:09:43.003Z,3.63
2018-09-27T17:12:16.481Z,4.07
2018-09-27T17:14:50.333Z,3.53
2018-09-27T17:17:23.617Z,5.50
2018-09-27T17:19:57.057Z,4.10
2018-09-27T17:22:30.886Z,3.60
2018-09-27T17:25:04.353Z,5.80
2018-09-27T17:27:38.036Z,6.17
2018-09-27T17:30:11.556Z,3.85
2018-09-27T17:32:45.099Z,4.95
2018-09-27T17:35:18.522Z,7.90
2018-09-27T17:37:53.863Z,3.60
2018-09-27T17:40:27.284Z,5.28
2018-09-27T17:43:00.428Z,3.98
2018-09-27T17:45:33.253Z,5.35
2018-09-27T17:48:06.726Z,4.25
2018-09-27T17:50:40.056Z,3.33
2018-09-27T17:53:13.923Z,4.83
2018-09-27T17:55:47.525Z,5.45
2018-09-27T17:58:20.734Z,3.90
2018-09-27T18:00:54.201Z,4.17
2018-09-27T18:03:27.459Z,4.12
2018-09-27T18:06:01.096Z,5.57
2018-09-27T18:08:34.713Z,5.80
2018-09-27T18:11:08.305Z,5.93
2018-09-27T18:13:41.866Z,5.37
2018-09-27T18:16:15.253Z,5.83
2018-09-27T18:22:09.264Z,7.20
2018-09-27T18:24:43.004Z,5.20
2018-09-27T18:27:15.358Z,8.20
2018-09-27T18:29:48.477Z,14.07
2018-09-27T18:32:23.576Z,9.67
2018-09-27T18:35:00.041Z,7.80
2018-09-27T18:37:32.947Z,6.30
2018-09-27T18:43:29.894Z,5.13
2018-09-27T18:46:02.562Z,7.93
2018-09-27T18:48:35.019Z,5.27
2018-09-27T18:51:07.447Z,5.13
2018-09-27T18:53:40.980Z,4.70
2018-09-27T18:56:43.896Z,5.10
2018-09-27T19:02:39.612Z,5.27
2018-09-27T19:05:12.877Z,5.90
2018-09-27T19:07:46.044Z,5.67
2018-09-27T19:10:19.365Z,6.17
2018-09-27T19:12:52.645Z,7.00
2018-09-27T19:15:25.529Z,7.33
2018-09-27T19:17:58.600Z,6.63
2018-09-27T19:20:31.695Z,6.90
2018-09-27T19:23:04.857Z,6.33
2018-09-27T19:25:37.408Z,5.70
2018-09-27T19:28:10.142Z,7.07
2018-09-27T19:30:43.100Z,5.27
2018-09-27T19:33:16.833Z,14.87
2018-09-27T19:35:50.081Z,5.30
2018-09-27T19:38:23.736Z,4.63
2018-09-27T19:40:57.023Z,4.90
2018-09-27T19:43:29.768Z,4.67
2018-09-27T19:46:03.973Z,4.63
2018-09-27T19:48:42.095Z,5.03
2018-09-27T19:51:15.255Z,5.07
2018-09-27T19:53:49.275Z,4.83
2018-09-27T19:56:22.243Z,7.40
2018-09-27T19:58:55.322Z,8.87
2018-09-27T20:01:28.770Z,8.50
2018-09-27T20:04:02.400Z,8.57
2018-09-27T20:06:37.768Z,9.40
2018-09-27T20:09:14.722Z,7.97
2018-09-27T20:11:48.025Z,9.30
2018-09-27T20:14:21.509Z,11.23
2018-09-27T20:16:54.746Z,10.13
2018-09-27T20:19:28.347Z,8.07
2018-09-27T20:22:01.457Z,8.17
2018-09-27T20:24:34.092Z,8.80
2018-09-27T20:33:52.688Z,8.73
2018-09-27T20:36:25.383Z,10.30
2018-09-27T20:38:59.028Z,7.63
2018-09-27T20:41:32.072Z,9.50
2018-09-27T20:47:27.170Z,14.20
2018-09-27T20:50:03.555Z,11.90
2018-09-27T20:52:39.092Z,15.30
2018-09-27T20:55:12.093Z,10.23
2018-09-27T20:57:45.035Z,12.77
2018-09-27T21:00:18.772Z,14.97
2018-09-27T21:02:52.198Z,11.13
2018-09-27T21:05:25.318Z,14.00
2018-09-27T21:07:58.775Z,13.13
2018-09-27T21:10:32.152Z,11.70
2018-09-27T21:13:11.951Z,12.87
2018-09-27T21:15:46.435Z,12.17
2018-09-27T21:18:20.596Z,11.47
2018-09-27T21:20:54.286Z,12.07
2018-09-27T21:23:27.592Z,13.23
2018-09-27T21:26:01.149Z,11.70
2018-09-27T21:28:34.368Z,11.33
2018-09-27T21:31:08.961Z,12.40
2018-09-27T21:33:41.999Z,13.90
2018-09-27T21:36:16.218Z,17.83
2018-09-27T21:38:50.868Z,55.63
2018-09-27T21:41:24.974Z,18.20
2018-09-27T21:43:58.686Z,16.87
2018-09-27T21:46:32.601Z,17.97
2018-09-27T21:49:06.598Z,16.30
2018-09-27T21:51:40.534Z,10.03
2018-09-27T21:54:14.269Z,9.17
2018-09-27T21:56:49.457Z,7.80
2018-09-27T21:59:42.169Z,7.50
2018-09-27T22:02:15.926Z,8.43
2018-09-27T22:04:49.388Z,8.60
2018-09-27T22:07:23.457Z,7.17
2018-09-27T22:09:58.509Z,8.17
2018-09-27T22:12:32.034Z,9.00
2018-09-27T22:15:05.557Z,8.67
2018-09-27T22:17:38.907Z,10.67
2018-09-27T22:20:12.094Z,10.00
2018-09-27T22:22:45.581Z,11.10
2018-09-27T22:25:19.163Z,7.80
2018-09-27T22:27:55.488Z,6.93
2018-09-27T22:30:29.429Z,8.60
2018-09-27T22:33:03.749Z,8.53
2018-09-27T22:35:37.289Z,7.03
2018-09-27T22:38:10.498Z,3.40
2018-09-27T22:40:44.359Z,4.80
2018-09-27T22:43:19.212Z,7.30
2018-09-27T22:45:57.753Z,7.37
2018-09-27T22:48:31.493Z,8.43
2018-09-27T22:51:05.050Z,7.93
2018-09-27T22:53:38.616Z,8.07
2018-09-27T22:56:12.105Z,6.93
2018-09-27T22:58:48.477Z,9.50
2018-09-27T23:01:21.985Z,10.13
2018-09-27T23:03:55.535Z,7.83
2018-09-27T23:06:29.314Z,4.20
2018-09-27T23:12:26.128Z,7.47
2018-09-27T23:14:58.566Z,6.93
2018-09-27T23:17:31.103Z,9.27
2018-09-27T23:20:04.122Z,3.50
2018-09-27T23:22:37.636Z,4.60
2018-09-27T23:25:10.692Z,3.33
2018-09-27T23:27:43.550Z,4.23
2018-09-27T23:30:16.880Z,5.53
2018-09-27T23:32:50.228Z,6.43
2018-09-27T23:35:22.769Z,5.37
2018-09-27T23:37:56.681Z,5.60
2018-09-27T23:40:29.294Z,6.00
2018-09-27T23:43:02.551Z,5.07
2018-09-27T23:45:37.777Z,7.97
2018-09-27T23:48:11.413Z,6.67
2018-09-27T23:50:44.228Z,6.80
2018-09-27T23:53:16.997Z,8.10
2018-09-27T23:55:51.322Z,8.00
2018-09-27T23:58:25.485Z,8.93
